< < Back
Terminal Aerodrome Forecast


Current Version              Previous Versions:   1  2  3  4  5  6  7  8  9  

Terminal Aerodrome Forecast

711
FTUS42 KTAE 051120
TAFVLD
TAF
KVLD 051120Z 0512/0612 00000KT P6SM SCT250
     FM051700 28005KT P6SM VCTS SCT050CB
      TEMPO 0518/0521 VRB15G25KT 3SM TSRA SCT020 BKN035CB=

Latest METAR

709
SAUS70 KWBC 060000 RRF
MTRVLD
METAR KVLD 052353Z 17004KT 10SM CLR 24/22 A3016 RMK AO2 SLP218 60021
T02440222 10256 20228 53016


USA.gov is the U.S. government's official web portal to all federal, state and local government web resources and services.